createdAt,value
2022-08-09T00:01:54.555Z,12.20
2022-08-09T00:04:34.197Z,12.20
2022-08-09T00:07:03.736Z,12.20
2022-08-09T00:09:38.711Z,12.10
2022-08-09T00:12:07.304Z,12.10
2022-08-09T00:14:38.343Z,12.00
2022-08-09T00:17:08.574Z,12.00
2022-08-09T00:19:56.422Z,12.00
2022-08-09T00:22:25.663Z,12.00
2022-08-09T00:25:04.016Z,12.00
2022-08-09T00:27:36.591Z,12.00
2022-08-09T00:30:25.594Z,12.00
2022-08-09T00:32:56.125Z,11.90
2022-08-09T00:35:25.785Z,11.90
2022-08-09T00:37:57.400Z,11.90
2022-08-09T00:40:30.915Z,11.80
2022-08-09T00:44:10.888Z,11.80
2022-08-09T00:45:53.905Z,11.80
2022-08-09T00:48:23.444Z,11.70
2022-08-09T00:50:53.542Z,11.70
2022-08-09T00:53:24.263Z,11.70
2022-08-09T00:58:34.377Z,11.60
2022-08-09T01:01:03.652Z,11.60
2022-08-09T01:03:46.195Z,11.50
2022-08-09T01:06:18.959Z,11.50
2022-08-09T01:08:51.736Z,11.40
2022-08-09T01:11:25.614Z,11.40
2022-08-09T01:14:00.227Z,11.40
2022-08-09T01:16:32.864Z,11.40
2022-08-09T01:19:17.218Z,11.30
2022-08-09T01:22:06.296Z,11.30
2022-08-09T01:24:52.106Z,11.30
2022-08-09T01:27:23.776Z,11.20
2022-08-09T01:29:56.106Z,11.20
2022-08-09T01:32:38.590Z,11.20
2022-08-09T01:35:28.269Z,11.20
2022-08-09T01:38:10.095Z,11.20
2022-08-09T01:40:40.562Z,11.10
2022-08-09T01:43:11.045Z,11.10
2022-08-09T01:45:44.552Z,11.10
2022-08-09T01:48:15.667Z,11.00
2022-08-09T01:50:48.261Z,11.00
2022-08-09T01:53:19.819Z,10.90
2022-08-09T01:55:48.666Z,10.90
2022-08-09T01:58:18.314Z,10.90
2022-08-09T02:00:52.635Z,10.80
2022-08-09T02:03:22.534Z,10.80
2022-08-09T02:06:03.227Z,10.80
2022-08-09T02:08:56.982Z,10.70
2022-08-09T02:11:23.675Z,10.80
2022-08-09T02:14:07.340Z,10.70
2022-08-09T02:16:53.297Z,10.70
2022-08-09T02:19:24.715Z,10.60
2022-08-09T02:22:10.187Z,10.60
2022-08-09T02:24:39.110Z,10.60
2022-08-09T02:27:10.904Z,10.60
2022-08-09T02:29:43.264Z,10.60
2022-08-09T02:32:12.348Z,10.50
2022-08-09T02:34:51.805Z,10.50
2022-08-09T02:37:31.778Z,10.50
2022-08-09T02:40:09.406Z,10.40
2022-08-09T02:42:40.296Z,10.40
2022-08-09T02:45:12.459Z,10.30
2022-08-09T02:47:57.431Z,10.30
2022-08-09T02:50:28.175Z,10.30
2022-08-09T02:52:57.591Z,10.30
2022-08-09T02:55:46.928Z,10.20
2022-08-09T02:58:32.830Z,10.20
2022-08-09T03:01:06.418Z,10.20
2022-08-09T03:04:17.231Z,10.10
2022-08-09T03:06:27.689Z,10.10
2022-08-09T03:08:56.449Z,10.10
2022-08-09T03:12:05.281Z,10.10
2022-08-09T03:14:13.119Z,10.10
2022-08-09T03:16:44.981Z,10.10
2022-08-09T03:19:14.558Z,10.10
2022-08-09T03:22:03.325Z,10.00
2022-08-09T03:24:42.443Z,10.10
2022-08-09T03:27:21.217Z,10.00
2022-08-09T03:29:57.752Z,10.00
2022-08-09T03:32:32.205Z,10.00
2022-08-09T03:35:00.542Z,9.90
2022-08-09T03:37:56.414Z,9.90
2022-08-09T03:40:18.153Z,9.90
2022-08-09T03:42:46.636Z,9.90
2022-08-09T03:45:15.486Z,9.90
2022-08-09T03:47:46.829Z,9.90
2022-08-09T03:50:18.886Z,9.90
2022-08-09T03:52:57.626Z,9.80
2022-08-09T03:55:25.628Z,9.80
2022-08-09T03:58:06.323Z,9.80
2022-08-09T04:00:38.213Z,9.80
2022-08-09T04:03:07.918Z,9.80
2022-08-09T04:05:40.473Z,9.80
2022-08-09T04:08:08.830Z,9.80
2022-08-09T04:10:36.710Z,9.70
2022-08-09T04:13:09.535Z,9.70
2022-08-09T04:16:18.007Z,9.80
2022-08-09T04:18:28.926Z,9.70
2022-08-09T04:20:56.779Z,9.80
2022-08-09T04:23:25.938Z,9.80
2022-08-09T04:25:56.384Z,9.80
2022-08-09T04:28:30.720Z,9.90
2022-08-09T04:31:05.686Z,9.90
2022-08-09T04:33:51.485Z,9.90
2022-08-09T04:36:21.951Z,10.00
2022-08-09T04:38:51.297Z,10.00
2022-08-09T04:41:23.542Z,10.10
2022-08-09T04:44:04.908Z,10.20
2022-08-09T04:46:56.761Z,10.20
2022-08-09T04:49:40.868Z,10.30
2022-08-09T04:52:11.001Z,10.40
2022-08-09T04:54:39.208Z,10.50
2022-08-09T04:57:09.297Z,10.60
2022-08-09T04:59:37.977Z,10.70
2022-08-09T05:02:06.410Z,10.80
2022-08-09T05:04:35.689Z,10.90
2022-08-09T05:07:03.693Z,11.00
2022-08-09T05:09:45.413Z,11.10
2022-08-09T05:12:17.867Z,11.20
2022-08-09T05:14:48.903Z,11.30
2022-08-09T05:18:38.365Z,11.40
2022-08-09T05:20:09.327Z,11.50
2022-08-09T05:23:57.114Z,11.70
2022-08-09T05:25:26.420Z,11.80
2022-08-09T05:28:00.298Z,11.90
2022-08-09T05:30:31.260Z,12.10
2022-08-09T05:33:00.652Z,12.20
2022-08-09T05:35:31.976Z,12.40
2022-08-09T05:38:06.888Z,12.50
2022-08-09T05:40:35.983Z,12.70
2022-08-09T05:43:04.642Z,12.90
2022-08-09T05:45:52.651Z,13.00
2022-08-09T05:48:20.347Z,13.20
2022-08-09T05:51:16.592Z,13.30
2022-08-09T05:53:56.632Z,13.50
2022-08-09T05:56:26.819Z,13.60
2022-08-09T05:58:58.686Z,13.80
2022-08-09T06:01:34.152Z,14.00
2022-08-09T06:04:12.249Z,14.20
2022-08-09T06:06:49.782Z,14.40
2022-08-09T06:09:41.139Z,14.50
2022-08-09T06:12:06.947Z,14.80
2022-08-09T06:14:35.970Z,14.90
2022-08-09T06:17:05.197Z,15.10
2022-08-09T06:19:37.060Z,15.30
2022-08-09T06:22:15.448Z,15.40
2022-08-09T06:24:43.501Z,15.60
2022-08-09T06:27:11.324Z,15.80
2022-08-09T06:29:48.425Z,15.90
2022-08-09T06:33:13.822Z,16.10
2022-08-09T06:35:19.602Z,16.30
2022-08-09T06:38:05.490Z,16.50
2022-08-09T06:40:34.116Z,16.70
2022-08-09T06:43:02.189Z,17.00
2022-08-09T06:46:07.069Z,17.10
2022-08-09T06:48:30.474Z,17.30
2022-08-09T06:50:59.682Z,17.50
2022-08-09T06:53:38.089Z,17.60
2022-08-09T06:56:06.609Z,17.80
2022-08-09T07:00:47.221Z,17.90
2022-08-09T07:01:24.188Z,18.00
2022-08-09T07:04:00.360Z,18.30
2022-08-09T07:06:31.984Z,18.40
2022-08-09T07:09:01.190Z,18.70
2022-08-09T07:11:34.365Z,18.90
2022-08-09T07:14:18.104Z,19.10
2022-08-09T07:16:58.094Z,19.20
2022-08-09T07:19:26.538Z,19.40
2022-08-09T07:21:57.767Z,19.70
2022-08-09T07:24:40.252Z,19.80
2022-08-09T07:27:26.717Z,20.10
2022-08-09T07:30:00.501Z,20.20
2022-08-09T07:32:32.215Z,20.40
2022-08-09T07:35:02.719Z,20.60
2022-08-09T07:37:43.850Z,20.70
2022-08-09T07:40:16.957Z,20.80
2022-08-09T07:42:49.098Z,21.10
2022-08-09T07:45:23.755Z,21.10
2022-08-09T07:48:06.611Z,21.20
2022-08-09T07:50:36.862Z,21.30
2022-08-09T07:53:05.459Z,21.50
2022-08-09T07:55:41.034Z,21.60
2022-08-09T07:58:26.104Z,21.80
2022-08-09T08:00:58.941Z,22.00
2022-08-09T08:03:37.037Z,22.20
2022-08-09T08:06:05.159Z,22.40
2022-08-09T08:09:01.457Z,22.40
2022-08-09T08:12:12.144Z,22.60
2022-08-09T08:14:10.171Z,22.90
2022-08-09T08:16:39.646Z,23.10
2022-08-09T08:19:18.838Z,23.10
2022-08-09T08:21:52.569Z,23.00
2022-08-09T08:24:20.716Z,23.30
2022-08-09T08:26:55.582Z,23.60
2022-08-09T08:29:27.366Z,23.80
2022-08-09T08:32:03.817Z,24.00
2022-08-09T08:34:34.351Z,24.10
2022-08-09T08:37:02.883Z,24.50
2022-08-09T08:39:39.582Z,24.80
2022-08-09T08:42:13.781Z,24.70
2022-08-09T08:44:44.180Z,25.00
2022-08-09T08:47:15.786Z,25.30
2022-08-09T08:49:47.874Z,25.20
2022-08-09T08:52:52.873Z,25.50
2022-08-09T08:55:09.340Z,25.70
2022-08-09T08:57:38.678Z,26.00
2022-08-09T09:00:20.460Z,26.00
2022-08-09T09:03:02.799Z,26.10
2022-08-09T09:05:58.578Z,26.00
2022-08-09T09:08:30.666Z,26.00
2022-08-09T09:13:42.198Z,26.90
2022-08-09T09:16:18.454Z,27.00
2022-08-09T09:19:21.514Z,26.70
2022-08-09T09:22:04.311Z,26.40
2022-08-09T09:24:37.717Z,26.00
2022-08-09T09:27:06.523Z,25.70
2022-08-09T09:30:09.307Z,25.30
2022-08-09T09:32:34.317Z,25.20
2022-08-09T09:35:07.491Z,25.00
2022-08-09T09:37:40.170Z,24.90
2022-08-09T09:40:09.701Z,24.80
2022-08-09T09:42:39.485Z,25.00
2022-08-09T09:45:14.204Z,25.00
2022-08-09T09:47:48.073Z,25.00
2022-08-09T09:50:39.518Z,25.90
2022-08-09T09:53:17.828Z,26.60
2022-08-09T09:56:04.200Z,26.40
2022-08-09T09:58:45.132Z,26.20
2022-08-09T10:01:36.706Z,25.90
2022-08-09T10:04:09.549Z,25.70
2022-08-09T10:06:42.883Z,25.50
2022-08-09T10:09:22.614Z,26.20
2022-08-09T10:12:07.834Z,27.10
2022-08-09T10:14:47.688Z,26.80
2022-08-09T10:17:40.340Z,26.50
2022-08-09T10:20:15.109Z,26.20
2022-08-09T10:22:43.527Z,25.80
2022-08-09T10:25:14.732Z,25.60
2022-08-09T10:27:45.287Z,25.50
2022-08-09T10:34:05.202Z,25.10
2022-08-09T10:36:03.171Z,25.90
2022-08-09T10:38:54.389Z,26.40
2022-08-09T10:41:20.690Z,27.20
2022-08-09T10:43:59.051Z,27.90
2022-08-09T10:46:55.216Z,28.30
2022-08-09T10:49:50.093Z,29.00
2022-08-09T10:52:22.241Z,29.60
2022-08-09T10:54:54.521Z,30.10
2022-08-09T10:57:23.263Z,30.60
2022-08-09T10:59:58.165Z,30.20
2022-08-09T11:03:13.150Z,29.50
2022-08-09T11:05:30.999Z,28.90
2022-08-09T11:08:30.312Z,28.40
2022-08-09T11:11:08.745Z,28.10
2022-08-09T11:13:50.826Z,27.80
2022-08-09T11:16:39.041Z,27.60
2022-08-09T11:19:09.616Z,27.80
2022-08-09T11:22:04.906Z,27.80
2022-08-09T11:24:48.584Z,28.70
2022-08-09T11:28:03.040Z,29.60
2022-08-09T11:30:34.382Z,29.90
2022-08-09T11:33:04.627Z,29.20
2022-08-09T11:35:48.977Z,28.50
2022-08-09T11:38:22.186Z,28.20
2022-08-09T11:40:56.633Z,27.80
2022-08-09T11:43:40.625Z,27.50
2022-08-09T11:46:09.405Z,27.20
2022-08-09T11:48:47.690Z,27.00
2022-08-09T11:52:48.587Z,26.90
2022-08-09T11:54:28.667Z,26.80
2022-08-09T11:57:28.394Z,26.70
2022-08-09T12:00:15.773Z,27.40
2022-08-09T12:02:48.918Z,28.00
2022-08-09T12:05:22.878Z,27.90
2022-08-09T12:07:53.418Z,27.70
2022-08-09T12:10:38.503Z,27.60
2022-08-09T12:14:09.786Z,27.30
2022-08-09T12:15:59.747Z,27.10
2022-08-09T12:18:30.366Z,28.00
2022-08-09T12:21:02.813Z,28.40
2022-08-09T12:23:56.271Z,28.80
2022-08-09T12:26:25.481Z,29.70
2022-08-09T12:29:11.662Z,30.20
2022-08-09T12:32:01.881Z,30.30
2022-08-09T12:34:34.933Z,31.10
2022-08-09T12:37:21.627Z,31.10
2022-08-09T12:40:00.138Z,31.10
2022-08-09T12:42:30.855Z,30.40
2022-08-09T12:44:59.412Z,29.90
2022-08-09T12:47:28.548Z,29.50
2022-08-09T12:50:24.960Z,29.10
2022-08-09T12:53:08.803Z,28.80
2022-08-09T12:56:12.654Z,28.50
2022-08-09T12:58:30.522Z,28.20
2022-08-09T13:01:01.366Z,28.00
2022-08-09T13:03:53.565Z,27.90
2022-08-09T13:06:25.889Z,27.70
2022-08-09T13:09:07.210Z,27.60
2022-08-09T13:11:39.144Z,28.60
2022-08-09T13:14:42.088Z,29.60
2022-08-09T13:17:01.912Z,29.50
2022-08-09T13:20:09.707Z,29.20
2022-08-09T13:22:36.783Z,28.80
2022-08-09T13:25:07.830Z,28.50
2022-08-09T13:27:48.176Z,28.30
2022-08-09T13:30:51.162Z,28.00
2022-08-09T13:33:22.424Z,27.80
2022-08-09T13:36:39.604Z,27.50
2022-08-09T13:38:57.608Z,27.20
2022-08-09T13:41:58.882Z,27.00
2022-08-09T13:44:17.134Z,26.80
2022-08-09T13:47:28.901Z,27.60
2022-08-09T13:49:39.424Z,28.50
2022-08-09T13:52:23.760Z,28.90
2022-08-09T13:55:00.223Z,28.70
2022-08-09T13:57:36.353Z,28.60
2022-08-09T14:00:10.331Z,28.30
2022-08-09T14:03:04.047Z,28.00
2022-08-09T14:05:59.218Z,27.80
2022-08-09T14:08:18.193Z,27.50
2022-08-09T14:10:50.624Z,27.30
2022-08-09T14:13:27.763Z,27.20
2022-08-09T14:16:10.910Z,27.10
2022-08-09T14:18:45.276Z,27.00
2022-08-09T14:21:18.321Z,27.00
2022-08-09T14:23:55.480Z,27.10
2022-08-09T14:26:30.664Z,27.20
2022-08-09T14:29:02.679Z,27.50
2022-08-09T14:31:49.645Z,28.20
2022-08-09T14:34:27.406Z,28.50
2022-08-09T14:37:00.625Z,28.30
2022-08-09T14:39:40.565Z,28.00
2022-08-09T14:42:30.468Z,27.80
2022-08-09T14:45:01.496Z,27.60
2022-08-09T14:47:57.030Z,27.80
2022-08-09T14:50:28.611Z,27.80
2022-08-09T14:52:56.503Z,27.80
2022-08-09T14:55:25.691Z,27.90
2022-08-09T14:57:59.870Z,28.10
2022-08-09T15:00:27.825Z,28.00
2022-08-09T15:02:58.204Z,27.90
2022-08-09T15:05:26.259Z,27.70
2022-08-09T15:07:58.171Z,27.40
2022-08-09T15:10:26.632Z,27.20
2022-08-09T15:12:54.516Z,26.90
2022-08-09T15:15:22.668Z,26.70
2022-08-09T15:17:52.824Z,26.50
2022-08-09T15:21:55.043Z,26.40
2022-08-09T15:24:03.094Z,26.30
2022-08-09T15:25:59.196Z,26.30
2022-08-09T15:28:28.362Z,26.50
2022-08-09T15:31:08.225Z,26.30
2022-08-09T15:34:15.254Z,26.30
2022-08-09T15:36:29.400Z,26.20
2022-08-09T15:39:00.031Z,26.00
2022-08-09T15:41:31.460Z,25.80
2022-08-09T15:44:00.422Z,25.90
2022-08-09T15:46:33.012Z,26.00
2022-08-09T15:49:20.463Z,26.00
2022-08-09T15:52:03.245Z,25.90
2022-08-09T15:54:48.925Z,25.80
2022-08-09T15:57:19.019Z,25.70
2022-08-09T16:00:03.088Z,25.60
2022-08-09T16:02:30.920Z,25.50
2022-08-09T16:04:58.748Z,25.50
2022-08-09T16:07:30.428Z,25.30
2022-08-09T16:10:11.042Z,25.30
2022-08-09T16:12:41.514Z,25.30
2022-08-09T16:16:04.363Z,25.20
2022-08-09T16:18:06.189Z,25.30
2022-08-09T16:20:36.355Z,25.30
2022-08-09T16:23:05.862Z,25.30
2022-08-09T16:25:40.409Z,25.20
2022-08-09T16:28:12.267Z,25.10
2022-08-09T16:30:44.656Z,25.00
2022-08-09T16:33:23.262Z,24.90
2022-08-09T16:35:55.906Z,24.70
2022-08-09T16:38:26.004Z,24.60
2022-08-09T16:40:55.516Z,24.50
2022-08-09T16:43:24.284Z,24.40
2022-08-09T16:45:54.600Z,24.40
2022-08-09T16:48:41.192Z,24.20
2022-08-09T16:51:14.273Z,24.20
2022-08-09T16:54:02.431Z,24.00
2022-08-09T16:56:31.934Z,24.00
2022-08-09T16:59:01.119Z,23.90
2022-08-09T17:01:35.447Z,23.90
2022-08-09T17:04:05.458Z,23.90
2022-08-09T17:08:40.652Z,23.80
2022-08-09T17:09:45.671Z,23.70
2022-08-09T17:12:11.724Z,23.70
2022-08-09T17:14:39.575Z,23.70
2022-08-09T17:17:26.667Z,23.60
2022-08-09T17:20:29.075Z,23.50
2022-08-09T17:22:49.741Z,23.50
2022-08-09T17:25:20.435Z,23.40
2022-08-09T17:27:53.802Z,23.30
2022-08-09T17:30:22.460Z,23.30
2022-08-09T17:32:54.559Z,23.10
2022-08-09T17:35:25.468Z,23.10
2022-08-09T17:38:11.603Z,23.00
2022-08-09T17:40:42.013Z,22.90
2022-08-09T17:43:33.516Z,22.80
2022-08-09T17:46:07.110Z,22.70
2022-08-09T17:48:38.654Z,22.60
2022-08-09T17:51:17.624Z,22.50
2022-08-09T17:53:52.228Z,22.50
2022-08-09T17:56:22.212Z,22.30
2022-08-09T17:58:57.870Z,22.20
2022-08-09T18:01:25.819Z,22.10
2022-08-09T18:04:13.610Z,22.00
2022-08-09T18:06:43.130Z,21.90
2022-08-09T18:09:22.693Z,21.70
2022-08-09T18:12:14.850Z,21.60
2022-08-09T18:14:53.836Z,21.50
2022-08-09T18:17:27.342Z,21.30
2022-08-09T18:21:01.170Z,21.20
2022-08-09T18:23:04.646Z,21.10
2022-08-09T18:25:50.377Z,20.90
2022-08-09T18:30:36.153Z,20.80
2022-08-09T18:31:09.754Z,20.70
2022-08-09T18:33:37.587Z,20.60
2022-08-09T18:36:08.712Z,20.50
2022-08-09T18:38:42.358Z,20.40
2022-08-09T18:41:10.388Z,20.40
2022-08-09T18:43:45.332Z,20.30
2022-08-09T18:46:45.934Z,20.20
2022-08-09T18:49:10.566Z,20.20
2022-08-09T18:51:55.646Z,20.10
2022-08-09T18:54:28.437Z,20.00
2022-08-09T18:56:57.260Z,19.90
2022-08-09T18:59:37.402Z,19.90
2022-08-09T19:02:18.145Z,19.80
2022-08-09T19:04:47.452Z,19.80
2022-08-09T19:07:28.651Z,19.70
2022-08-09T19:10:14.436Z,19.70
2022-08-09T19:12:51.013Z,19.60
2022-08-09T19:15:27.553Z,19.50
2022-08-09T19:17:58.642Z,19.40
2022-08-09T19:20:33.963Z,19.40
2022-08-09T19:23:02.540Z,19.40
2022-08-09T19:26:01.068Z,19.30
2022-08-09T19:28:21.202Z,19.20
2022-08-09T19:30:49.121Z,19.10
2022-08-09T19:33:20.380Z,19.10
2022-08-09T19:35:58.489Z,19.00
2022-08-09T19:38:27.400Z,18.90
2022-08-09T19:40:57.558Z,18.90
2022-08-09T19:44:00.697Z,18.80
2022-08-09T19:46:15.819Z,18.70
2022-08-09T19:48:45.603Z,18.60
2022-08-09T19:51:30.886Z,18.50
2022-08-09T19:53:59.153Z,18.40
2022-08-09T19:56:28.714Z,18.40
2022-08-09T19:59:39.511Z,18.30
2022-08-09T20:02:04.420Z,18.20
2022-08-09T20:04:40.861Z,18.20
2022-08-09T20:07:20.895Z,18.10
2022-08-09T20:09:50.667Z,18.00
2022-08-09T20:12:27.485Z,17.80
2022-08-09T20:14:59.692Z,17.80
2022-08-09T20:17:27.622Z,17.60
2022-08-09T20:20:11.393Z,17.60
2022-08-09T20:22:46.190Z,17.50
2022-08-09T20:25:14.620Z,17.30
2022-08-09T20:27:51.105Z,17.30
2022-08-09T20:30:21.797Z,17.20
2022-08-09T20:32:51.931Z,17.10
2022-08-09T20:35:21.923Z,17.00
2022-08-09T20:38:22.171Z,16.90
2022-08-09T20:40:37.919Z,16.90
2022-08-09T20:43:18.135Z,16.70
2022-08-09T20:45:59.418Z,16.60
2022-08-09T20:48:39.907Z,16.50
2022-08-09T20:51:19.113Z,16.50
2022-08-09T20:53:48.710Z,16.40
2022-08-09T20:56:20.713Z,16.20
2022-08-09T20:58:50.324Z,16.20
2022-08-09T21:01:34.321Z,16.10
2022-08-09T21:05:52.442Z,16.00
2022-08-09T21:06:56.213Z,16.00
2022-08-09T21:09:32.794Z,15.90
2022-08-09T21:14:42.267Z,15.70
2022-08-09T21:18:25.553Z,15.70
2022-08-09T21:20:18.680Z,15.60
2022-08-09T21:22:52.693Z,15.50
2022-08-09T21:25:39.667Z,15.40
2022-08-09T21:28:15.927Z,15.40
2022-08-09T21:30:44.403Z,15.20
2022-08-09T21:33:12.923Z,15.20
2022-08-09T21:35:50.839Z,15.10
2022-08-09T21:38:31.526Z,15.10
2022-08-09T21:40:59.561Z,15.10
2022-08-09T21:43:56.115Z,15.10
2022-08-09T21:46:16.308Z,15.10
2022-08-09T21:48:49.610Z,15.00
2022-08-09T21:51:24.082Z,15.00
2022-08-09T21:54:05.231Z,14.90
2022-08-09T21:56:43.092Z,14.80
2022-08-09T21:59:16.177Z,14.70
2022-08-09T22:02:00.358Z,14.70
2022-08-09T22:04:56.538Z,14.60
2022-08-09T22:07:23.252Z,14.50
2022-08-09T22:10:05.171Z,14.50
2022-08-09T22:12:33.381Z,14.50
2022-08-09T22:15:01.788Z,14.50
2022-08-09T22:17:31.819Z,14.40
2022-08-09T22:20:01.018Z,14.40
2022-08-09T22:22:30.361Z,14.40
2022-08-09T22:26:06.104Z,14.30
2022-08-09T22:27:51.069Z,14.20
2022-08-09T22:30:26.098Z,14.10
2022-08-09T22:32:59.372Z,14.10
2022-08-09T22:36:00.082Z,14.10
2022-08-09T22:38:15.007Z,14.00
2022-08-09T22:40:48.724Z,14.00
2022-08-09T22:44:00.695Z,13.90
2022-08-09T22:48:14.262Z,13.90
2022-08-09T22:48:53.920Z,13.80
2022-08-09T22:51:23.871Z,13.70
2022-08-09T22:54:02.729Z,13.70
2022-08-09T22:56:34.042Z,13.60
2022-08-09T22:59:05.675Z,13.60
2022-08-09T23:01:51.940Z,13.60
2022-08-09T23:04:19.921Z,13.50
2022-08-09T23:07:11.100Z,13.50
2022-08-09T23:09:39.381Z,13.40
2022-08-09T23:12:07.448Z,13.30
2022-08-09T23:14:41.684Z,13.40
2022-08-09T23:17:10.474Z,13.30
2022-08-09T23:20:06.301Z,13.30
2022-08-09T23:22:26.423Z,13.30
2022-08-09T23:24:54.448Z,13.20
2022-08-09T23:27:22.344Z,13.20
2022-08-09T23:29:51.535Z,13.20
2022-08-09T23:32:19.359Z,13.10
2022-08-09T23:34:47.191Z,13.10
2022-08-09T23:37:15.722Z,13.10
2022-08-09T23:39:49.468Z,13.10
2022-08-09T23:42:17.386Z,13.00
2022-08-09T23:44:45.248Z,13.00
2022-08-09T23:47:14.440Z,12.90
2022-08-09T23:49:42.294Z,12.90
2022-08-09T23:52:10.127Z,12.90
2022-08-09T23:54:39.258Z,12.80
2022-08-09T23:57:11.263Z,12.70
2022-08-09T23:59:58.217Z,12.70
